logo
Search for airport 
image banner adimage banner adimage banner ad
image banner ad

LHDA - Daka

Located in Daka, Hungary

ICAO - , IATA -

Data provided by Airmate  

General information

Coordinates: N47°16'30" E17°24'33"
Elevation is 489 feet MSL.
 
View others Airports in Veszprém

Operational data

Special qualification required
Current time UTC:
Current local time:
Weather at : LHPA - Papa ( 12 km )
METAR: LHPA 231615Z 03008KT 340V070 CAVOK 29/14 Q1015 NOSIG RMK BLU
TAF: TAF LHPA 231115Z 2312/2412 35011KT CAVOK PROB30 TEMPO 2312/2316 36015G25KT 9999 SCT040TCU BECMG 2316/2318 33005KT PROB40 TEMPO 2323/2404 VRB03KT 9999 -RA -SHRA SCT040TCU BKN200 BECMG 2405/2407 33015KT TEMPO 2407/2412 34019G29KT 9999 SCT030
View NOTAMs / SUP AIP / TFR affecting this airport [VIEW]
Communications frequencies: [VIEW]

Runways:

RWY identifierQFULength (ft)Width (ft)SurfaceLDA (ft)
16246198GRASS
34246198GRASS

Airport contact information

Address: Daka Hungary

Satellite view of LHDA